Noordam — PHET — position and weather

sailwx.info

Track history (hours):
 
Tides and Currents Weather Stations Pressure Air Temp Water Temp Dewpoint Dewpoint Depression Visibility Wind Speed Wind Dir Waves Ship Positions

Noordam (Netherlands)

Ship's website: http://www.hollandamerica.com/cruiseships/Noordam

Last reported at 2014-Jul-31 21:18 UTC. Time now 2014-Jul-31 21:35 UTC.
Position N 36°25' E 023°02'.

Type: Passenger vessel. MMSI: 246028000.

Date/timePositionNaut miles runAvg speedWind from/ knotsBaromVisibWave heightAir tempDewpointWater temp
2014-Jul-31 21:18N 36°25' E 023°02'1317.0
2014-Jul-31 20:33N 36°24' E 023°18'2017.2
2014-Jul-31 19:22N 36°23' E 023°44'1417.1
2014-Jul-31 18:33N 36°23' E 024°01'1717.0
2014-Jul-31 17:33N 36°23' E 024°22'1716.5
2014-Jul-31 16:33N 36°24' E 024°42'1717.0
2014-Jul-31 15:33N 36°24' E 025°03'1615.9
2014-Jul-31 14:33N 36°23' E 025°23'2 1.9
2014-Jul-31 13:33N 36°24' E 025°25'0 0.0
2014-Jul-31 12:33N 36°24' E 025°25'0 0.0
2014-Jul-31 11:33N 36°24' E 025°25'0 0.0
2014-Jul-31 10:33N 36°24' E 025°25'0 0.0
2014-Jul-31 09:33N 36°24' E 025°25'0 0.0
2014-Jul-31 08:33N 36°24' E 025°25'0 0.0
2014-Jul-31 07:33N 36°24' E 025°25'0 0.0
2014-Jul-31 06:33N 36°24' E 025°25'0 0.0
2014-Jul-31 05:33N 36°24' E 025°25'1 0.9
2014-Jul-31 04:33N 36°24' E 025°24'7 6.7
2014-Jul-31 03:33N 36°18' E 025°20'1111.3
2014-Jul-31 02:33N 36°16' E 025°34'1111.3
2014-Jul-31 01:33N 36°13' E 025°48'1211.9
2014-Jul-31 00:33N 36°13' E 026°03'1212.1
2014-Jul-30 23:33N 36°12' E 026°18'1212.1
2014-Jul-30 22:33N 36°12' E 026°32'1212.2
2014-Jul-30 21:33N 36°13' E 026°48'1212.0
2014-Jul-30 20:33N 36°14' E 027°02'4 7.1
2014-Jul-30 20:00N 36°12' E 027°06'1022.2 310 / 191007.010.8 0.525.022.021.0
2014-Jul-30 19:33N 36°17' E 027°16'1212.2
2014-Jul-30 18:32N 36°20' E 027°31'1211.8
2014-Jul-30 17:29N 36°23' E 027°46'1111.4
2014-Jul-30 16:33N 36°26' E 027°59'33 2.1
2014-Jul-30 01:13N 36°21' E 027°19'1515.2
2014-Jul-30 00:14N 36°26' E 027°02'1315.6
2014-Jul-29 23:26N 36°33' E 026°48'1715.2
2014-Jul-29 22:19N 36°44' E 026°32'1216.2
2014-Jul-29 21:33N 36°52' E 026°21'1615.9
2014-Jul-29 20:33N 37°05' E 026°10'1212.0
2014-Jul-29 19:33N 37°17' E 026°12'1413.6
2014-Jul-29 18:31N 37°31' E 026°16'1516.1
2014-Jul-29 17:34N 37°43' E 026°28'1615.6
2014-Jul-29 16:32N 37°51' E 026°46'3 0.1
2014-Jul-28 20:25N 37°53' E 026°44'2320.9
2014-Jul-28 19:20N 37°52' E 026°15'1920.4
2014-Jul-28 18:25N 37°48' E 025°52'1820.3
2014-Jul-28 17:33N 37°40' E 025°33'8 8.4
2014-Jul-28 16:33N 37°35' E 025°24'8 8.0
2014-Jul-28 15:33N 37°30' E 025°17'3 2.7
2014-Jul-28 14:33N 37°28' E 025°19'0 0.0
2014-Jul-28 13:33N 37°28' E 025°19'0 0.0
2014-Jul-28 12:33N 37°28' E 025°19'0 0.0
2014-Jul-28 11:33N 37°28' E 025°19'0 0.0
2014-Jul-28 10:33N 37°28' E 025°19'0 0.0
2014-Jul-28 09:33N 37°28' E 025°19'0 0.0
2014-Jul-28 08:33N 37°28' E 025°19'0 0.0
2014-Jul-28 07:33N 37°28' E 025°19'0 0.0
2014-Jul-28 06:33N 37°28' E 025°19'0 0.0
2014-Jul-28 05:33N 37°28' E 025°19'0 0.0
2014-Jul-28 04:33N 37°28' E 025°19'0 0.2
2014-Jul-28 03:33N 37°28' E 025°19'8 7.9
2014-Jul-28 02:33N 37°30' E 025°09'8 8.4
2014-Jul-28 01:33N 37°32' E 024°59'8 7.7
2014-Jul-28 00:33N 37°33' E 024°49'611.5
2014-Jul-28 00:00N 37°30' E 024°42'3 6.5 080 / 41013.010.8 0.525.721.825.4
2014-Jul-27 23:33N 37°32' E 024°39'8 8.4
2014-Jul-27 22:33N 37°31' E 024°29'11 8.0
2014-Jul-27 21:14N 37°28' E 024°16'6 8.0
2014-Jul-27 20:33N 37°28' E 024°09'9 8.5
2014-Jul-27 19:33N 37°33' E 023°60'8 8.5
2014-Jul-27 18:33N 37°36' E 023°50'8 7.7
2014-Jul-27 17:33N 37°41' E 023°42'8 8.4
2014-Jul-27 16:33N 37°48' E 023°37'8 7.9
2014-Jul-27 15:33N 37°56' E 023°36'2 1.5
2014-Jul-27 14:31N 37°56' E 023°38'0 0.0
2014-Jul-27 13:31N 37°56' E 023°38'0 0.0
2014-Jul-27 12:28N 37°56' E 023°38'0 0.0
2014-Jul-27 11:31N 37°56' E 023°38'0 0.0
2014-Jul-27 10:22N 37°56' E 023°38'0 0.0
2014-Jul-27 09:28N 37°56' E 023°38'0 0.0
2014-Jul-27 08:16N 37°56' E 023°38'0 0.0
2014-Jul-27 07:31N 37°56' E 023°38'0 0.0
2014-Jul-27 06:28N 37°56' E 023°38'0 0.0
2014-Jul-27 05:31N 37°56' E 023°38'0 0.0
2014-Jul-27 04:31N 37°56' E 023°38'0 0.2
2014-Jul-27 03:33N 37°56' E 023°38'3 3.3
2014-Jul-27 02:33N 37°53' E 023°38'8 7.8
2014-Jul-27 01:33N 37°46' E 023°42'8 7.5
2014-Jul-27 00:33N 37°39' E 023°46'1017.1
2014-Jul-27 00:00N 37°30' E 023°42'4 9.9 290 / 81012.010.8 1.026.123.026.3
2014-Jul-26 23:33N 37°32' E 023°47'8 7.6
2014-Jul-26 22:30N 37°24' E 023°44'9 7.4
2014-Jul-26 21:15N 37°16' E 023°41'6 7.4
2014-Jul-26 20:30N 37°11' E 023°36'9 7.6
2014-Jul-26 19:21N 37°05' E 023°29'8 9.6
2014-Jul-26 18:33N 37°05' E 023°19'9 7.6
2014-Jul-26 17:25N 37°07' E 023°08'10 8.3
2014-Jul-26 16:11N 37°15' E 023°01'8 9.2
2014-Jul-26 15:20N 37°21' E 022°55'6 7.6
2014-Jul-26 14:32N 37°26' E 022°50'1 0.1
2014-Jul-26 04:09N 37°27' E 022°50'1217.7
2014-Jul-26 03:29N 37°17' E 022°58'1817.5
2014-Jul-26 02:29N 37°02' E 023°09'1617.1
2014-Jul-26 01:34N 36°46' E 023°13'1717.4
2014-Jul-26 00:34N 36°29' E 023°17'1513.1
2014-Jul-25 23:25N 36°24' E 022°59'7316.4
2014-Jul-25 19:00N 36°36' E 021°30'57812.9 320 / 141011.010.8 0.524.015.825.0
2014-Jul-23 22:00N 44°00' E 013°24'   310 / 61011.0 5.4 1.524.516.022.0
Track history (hours):
 
Tides and Currents Weather Stations Pressure Air Temp Water Temp Dewpoint Dewpoint Depression Visibility Wind Speed Wind Dir Waves Ship Positions

Noordam (Netherlands)

Ship's website: http://www.hollandamerica.com/cruiseships/Noordam

Last reported at 2014-Jul-31 21:18 UTC. Time now 2014-Jul-31 21:35 UTC.
Position N 36°25' E 023°02'.

Type: Passenger vessel. MMSI: 246028000.

Date/timePositionNaut miles runAvg speedWind from/ knotsBaromVisibWave heightAir tempDewpointWater temp
2014-Jul-31 21:18N 36°25' E 023°02'1317.0
2014-Jul-31 20:33N 36°24' E 023°18'2017.2
2014-Jul-31 19:22N 36°23' E 023°44'1417.1
2014-Jul-31 18:33N 36°23' E 024°01'1717.0
2014-Jul-31 17:33N 36°23' E 024°22'1716.5
2014-Jul-31 16:33N 36°24' E 024°42'1717.0
2014-Jul-31 15:33N 36°24' E 025°03'1615.9
2014-Jul-31 14:33N 36°23' E 025°23'2 1.9
2014-Jul-31 13:33N 36°24' E 025°25'0 0.0
2014-Jul-31 12:33N 36°24' E 025°25'0 0.0
2014-Jul-31 11:33N 36°24' E 025°25'0 0.0
2014-Jul-31 10:33N 36°24' E 025°25'0 0.0
2014-Jul-31 09:33N 36°24' E 025°25'0 0.0
2014-Jul-31 08:33N 36°24' E 025°25'0 0.0
2014-Jul-31 07:33N 36°24' E 025°25'0 0.0
2014-Jul-31 06:33N 36°24' E 025°25'0 0.0
2014-Jul-31 05:33N 36°24' E 025°25'1 0.9
2014-Jul-31 04:33N 36°24' E 025°24'7 6.7
2014-Jul-31 03:33N 36°18' E 025°20'1111.3
2014-Jul-31 02:33N 36°16' E 025°34'1111.3
2014-Jul-31 01:33N 36°13' E 025°48'1211.9
2014-Jul-31 00:33N 36°13' E 026°03'1212.1
2014-Jul-30 23:33N 36°12' E 026°18'1212.1
2014-Jul-30 22:33N 36°12' E 026°32'1212.2
2014-Jul-30 21:33N 36°13' E 026°48'1212.0
2014-Jul-30 20:33N 36°14' E 027°02'4 7.1
2014-Jul-30 20:00N 36°12' E 027°06'1022.2 310 / 191007.010.8 0.525.022.021.0
2014-Jul-30 19:33N 36°17' E 027°16'1212.2
2014-Jul-30 18:32N 36°20' E 027°31'1211.8
2014-Jul-30 17:29N 36°23' E 027°46'1111.4
2014-Jul-30 16:33N 36°26' E 027°59'33 2.1
2014-Jul-30 01:13N 36°21' E 027°19'1515.2
2014-Jul-30 00:14N 36°26' E 027°02'1315.6
2014-Jul-29 23:26N 36°33' E 026°48'1715.2
2014-Jul-29 22:19N 36°44' E 026°32'1216.2
2014-Jul-29 21:33N 36°52' E 026°21'1615.9
2014-Jul-29 20:33N 37°05' E 026°10'1212.0
2014-Jul-29 19:33N 37°17' E 026°12'1413.6
2014-Jul-29 18:31N 37°31' E 026°16'1516.1
2014-Jul-29 17:34N 37°43' E 026°28'1615.6
2014-Jul-29 16:32N 37°51' E 026°46'3 0.1
2014-Jul-28 20:25N 37°53' E 026°44'2320.9
2014-Jul-28 19:20N 37°52' E 026°15'1920.4
2014-Jul-28 18:25N 37°48' E 025°52'1820.3
2014-Jul-28 17:33N 37°40' E 025°33'8 8.4
2014-Jul-28 16:33N 37°35' E 025°24'8 8.0
2014-Jul-28 15:33N 37°30' E 025°17'3 2.7
2014-Jul-28 14:33N 37°28' E 025°19'0 0.0
2014-Jul-28 13:33N 37°28' E 025°19'0 0.0
2014-Jul-28 12:33N 37°28' E 025°19'0 0.0
2014-Jul-28 11:33N 37°28' E 025°19'0 0.0
2014-Jul-28 10:33N 37°28' E 025°19'0 0.0
2014-Jul-28 09:33N 37°28' E 025°19'0 0.0
2014-Jul-28 08:33N 37°28' E 025°19'0 0.0
2014-Jul-28 07:33N 37°28' E 025°19'0 0.0
2014-Jul-28 06:33N 37°28' E 025°19'0 0.0
2014-Jul-28 05:33N 37°28' E 025°19'0 0.0
2014-Jul-28 04:33N 37°28' E 025°19'0 0.2
2014-Jul-28 03:33N 37°28' E 025°19'8 7.9
2014-Jul-28 02:33N 37°30' E 025°09'8 8.4
2014-Jul-28 01:33N 37°32' E 024°59'8 7.7
2014-Jul-28 00:33N 37°33' E 024°49'611.5
2014-Jul-28 00:00N 37°30' E 024°42'3 6.5 080 / 41013.010.8 0.525.721.825.4
2014-Jul-27 23:33N 37°32' E 024°39'8 8.4
2014-Jul-27 22:33N 37°31' E 024°29'11 8.0
2014-Jul-27 21:14N 37°28' E 024°16'6 8.0
2014-Jul-27 20:33N 37°28' E 024°09'9 8.5
2014-Jul-27 19:33N 37°33' E 023°60'8 8.5
2014-Jul-27 18:33N 37°36' E 023°50'8 7.7
2014-Jul-27 17:33N 37°41' E 023°42'8 8.4
2014-Jul-27 16:33N 37°48' E 023°37'8 7.9
2014-Jul-27 15:33N 37°56' E 023°36'2 1.5
2014-Jul-27 14:31N 37°56' E 023°38'0 0.0
2014-Jul-27 13:31N 37°56' E 023°38'0 0.0
2014-Jul-27 12:28N 37°56' E 023°38'0 0.0
2014-Jul-27 11:31N 37°56' E 023°38'0 0.0
2014-Jul-27 10:22N 37°56' E 023°38'0 0.0
2014-Jul-27 09:28N 37°56' E 023°38'0 0.0
2014-Jul-27 08:16N 37°56' E 023°38'0 0.0
2014-Jul-27 07:31N 37°56' E 023°38'0 0.0
2014-Jul-27 06:28N 37°56' E 023°38'0 0.0
2014-Jul-27 05:31N 37°56' E 023°38'0 0.0
2014-Jul-27 04:31N 37°56' E 023°38'0 0.2
2014-Jul-27 03:33N 37°56' E 023°38'3 3.3
2014-Jul-27 02:33N 37°53' E 023°38'8 7.8
2014-Jul-27 01:33N 37°46' E 023°42'8 7.5
2014-Jul-27 00:33N 37°39' E 023°46'1017.1
2014-Jul-27 00:00N 37°30' E 023°42'4 9.9 290 / 81012.010.8 1.026.123.026.3
2014-Jul-26 23:33N 37°32' E 023°47'8 7.6
2014-Jul-26 22:30N 37°24' E 023°44'9 7.4
2014-Jul-26 21:15N 37°16' E 023°41'6 7.4
2014-Jul-26 20:30N 37°11' E 023°36'9 7.6
2014-Jul-26 19:21N 37°05' E 023°29'8 9.6
2014-Jul-26 18:33N 37°05' E 023°19'9 7.6
2014-Jul-26 17:25N 37°07' E 023°08'10 8.3
2014-Jul-26 16:11N 37°15' E 023°01'8 9.2
2014-Jul-26 15:20N 37°21' E 022°55'6 7.6
2014-Jul-26 14:32N 37°26' E 022°50'1 0.1
2014-Jul-26 04:09N 37°27' E 022°50'1217.7
2014-Jul-26 03:29N 37°17' E 022°58'1817.5
2014-Jul-26 02:29N 37°02' E 023°09'1617.1
2014-Jul-26 01:34N 36°46' E 023°13'1717.4
2014-Jul-26 00:34N 36°29' E 023°17'1513.1
2014-Jul-25 23:25N 36°24' E 022°59'7316.4
2014-Jul-25 19:00N 36°36' E 021°30'57812.9 320 / 141011.010.8 0.524.015.825.0
2014-Jul-23 22:00N 44°00' E 013°24'   310 / 61011.0 5.4 1.524.516.022.0

Dump ship's entire track history